sensor_id;sensor_type;location;lat;lon;timestamp;pressure;altitude;pressure_sealevel;temperature;humidity
11329;BME280;5719;42.714;23.732;2023-04-06T00:00:56;94108.88;;;-0.32;100.00
11329;BME280;5719;42.714;23.732;2023-04-06T00:03:24;94113.63;;;-0.23;100.00
11329;BME280;5719;42.714;23.732;2023-04-06T00:05:51;94101.38;;;-0.35;100.00
11329;BME280;5719;42.714;23.732;2023-04-06T00:08:18;94102.94;;;-0.31;100.00
11329;BME280;5719;42.714;23.732;2023-04-06T00:10:46;94099.41;;;-0.27;100.00
11329;BME280;5719;42.714;23.732;2023-04-06T00:13:13;94087.34;;;-0.22;100.00
11329;BME280;5719;42.714;23.732;2023-04-06T00:15:40;94102.47;;;-0.19;100.00
11329;BME280;5719;42.714;23.732;2023-04-06T00:18:07;94089.50;;;-0.11;100.00
11329;BME280;5719;42.714;23.732;2023-04-06T00:20:36;94093.81;;;0.09;100.00
11329;BME280;5719;42.714;23.732;2023-04-06T00:23:03;94087.03;;;0.09;98.56
11329;BME280;5719;42.714;23.732;2023-04-06T00:25:30;94072.19;;;-0.02;99.34
11329;BME280;5719;42.714;23.732;2023-04-06T00:27:57;94089.09;;;-0.01;99.79
11329;BME280;5719;42.714;23.732;2023-04-06T00:30:24;94084.34;;;-0.10;100.00
11329;BME280;5719;42.714;23.732;2023-04-06T00:32:50;94082.34;;;-0.02;100.00
11329;BME280;5719;42.714;23.732;2023-04-06T00:35:17;94072.31;;;-0.05;100.00
11329;BME280;5719;42.714;23.732;2023-04-06T00:37:47;94077.03;;;0.05;100.00
11329;BME280;5719;42.714;23.732;2023-04-06T00:40:14;94082.22;;;0.02;100.00
11329;BME280;5719;42.714;23.732;2023-04-06T00:42:41;94075.41;;;0.25;100.00
11329;BME280;5719;42.714;23.732;2023-04-06T00:45:09;94071.78;;;0.09;100.00
11329;BME280;5719;42.714;23.732;2023-04-06T00:47:37;94068.97;;;-0.07;100.00
11329;BME280;5719;42.714;23.732;2023-04-06T00:50:05;94044.28;;;-0.25;100.00
11329;BME280;5719;42.714;23.732;2023-04-06T00:52:32;94058.66;;;-0.02;100.00
11329;BME280;5719;42.714;23.732;2023-04-06T00:55:01;94070.59;;;-0.04;100.00
11329;BME280;5719;42.714;23.732;2023-04-06T00:57:28;94056.16;;;-0.04;100.00
11329;BME280;5719;42.714;23.732;2023-04-06T00:59:55;94061.56;;;0.11;100.00
11329;BME280;5719;42.714;23.732;2023-04-06T01:02:23;94058.78;;;-0.05;100.00
11329;BME280;5719;42.714;23.732;2023-04-06T01:04:50;94062.56;;;-0.15;100.00
11329;BME280;5719;42.714;23.732;2023-04-06T01:07:18;94047.63;;;-0.01;100.00
11329;BME280;5719;42.714;23.732;2023-04-06T01:09:45;94053.63;;;-0.04;100.00
11329;BME280;5719;42.714;23.732;2023-04-06T01:12:13;94043.81;;;-0.13;100.00
11329;BME280;5719;42.714;23.732;2023-04-06T01:14:40;94056.78;;;0.03;100.00
11329;BME280;5719;42.714;23.732;2023-04-06T01:17:07;94056.81;;;0.02;100.00
11329;BME280;5719;42.714;23.732;2023-04-06T01:19:34;94045.06;;;-0.01;100.00
11329;BME280;5719;42.714;23.732;2023-04-06T01:22:01;94042.53;;;0.21;100.00
11329;BME280;5719;42.714;23.732;2023-04-06T01:24:29;94035.94;;;0.15;100.00
11329;BME280;5719;42.714;23.732;2023-04-06T01:26:56;94047.66;;;-0.03;100.00
11329;BME280;5719;42.714;23.732;2023-04-06T01:29:23;94045.53;;;-0.13;100.00
11329;BME280;5719;42.714;23.732;2023-04-06T01:31:50;94033.28;;;-0.04;100.00
11329;BME280;5719;42.714;23.732;2023-04-06T01:34:17;94029.00;;;-0.02;100.00
11329;BME280;5719;42.714;23.732;2023-04-06T01:36:44;94039.16;;;-0.02;100.00
11329;BME280;5719;42.714;23.732;2023-04-06T01:39:11;94033.25;;;-0.02;100.00
11329;BME280;5719;42.714;23.732;2023-04-06T01:41:39;94033.06;;;0.03;100.00
11329;BME280;5719;42.714;23.732;2023-04-06T01:44:06;94030.16;;;0.12;100.00
11329;BME280;5719;42.714;23.732;2023-04-06T01:46:33;94024.50;;;0.05;100.00
11329;BME280;5719;42.714;23.732;2023-04-06T01:49:00;94013.81;;;-0.03;100.00
11329;BME280;5719;42.714;23.732;2023-04-06T01:51:26;94026.88;;;-0.12;100.00
11329;BME280;5719;42.714;23.732;2023-04-06T01:53:53;94026.00;;;-0.11;100.00
11329;BME280;5719;42.714;23.732;2023-04-06T01:56:20;94020.53;;;-0.02;100.00
11329;BME280;5719;42.714;23.732;2023-04-06T01:58:49;94008.25;;;-0.13;100.00
11329;BME280;5719;42.714;23.732;2023-04-06T02:01:16;94024.25;;;-0.11;100.00
11329;BME280;5719;42.714;23.732;2023-04-06T02:03:42;94004.78;;;-0.10;100.00
11329;BME280;5719;42.714;23.732;2023-04-06T02:06:09;94017.97;;;-0.01;100.00
11329;BME280;5719;42.714;23.732;2023-04-06T02:08:36;94012.97;;;-0.04;100.00
11329;BME280;5719;42.714;23.732;2023-04-06T02:11:03;94022.66;;;0.09;100.00
11329;BME280;5719;42.714;23.732;2023-04-06T02:13:30;94023.22;;;-0.05;100.00
11329;BME280;5719;42.714;23.732;2023-04-06T02:15:59;94018.25;;;-0.08;100.00
11329;BME280;5719;42.714;23.732;2023-04-06T02:18:27;94012.47;;;0.10;100.00
11329;BME280;5719;42.714;23.732;2023-04-06T02:20:54;94018.66;;;0.03;100.00
11329;BME280;5719;42.714;23.732;2023-04-06T02:23:22;94009.50;;;-0.01;100.00
11329;BME280;5719;42.714;23.732;2023-04-06T02:25:48;94015.50;;;-0.04;100.00
11329;BME280;5719;42.714;23.732;2023-04-06T02:28:16;94013.75;;;-0.02;100.00
11329;BME280;5719;42.714;23.732;2023-04-06T02:30:43;94005.25;;;-0.01;100.00
11329;BME280;5719;42.714;23.732;2023-04-06T02:33:11;94026.63;;;-0.06;100.00
11329;BME280;5719;42.714;23.732;2023-04-06T02:35:38;94015.41;;;-0.01;100.00
11329;BME280;5719;42.714;23.732;2023-04-06T02:38:05;94024.03;;;-0.05;100.00
11329;BME280;5719;42.714;23.732;2023-04-06T02:40:32;94026.78;;;-0.11;100.00
11329;BME280;5719;42.714;23.732;2023-04-06T02:42:58;94020.84;;;-0.10;100.00
11329;BME280;5719;42.714;23.732;2023-04-06T02:45:26;94033.38;;;-0.05;100.00
11329;BME280;5719;42.714;23.732;2023-04-06T02:47:52;94029.41;;;-0.12;100.00
11329;BME280;5719;42.714;23.732;2023-04-06T02:50:21;94018.38;;;0.11;100.00
11329;BME280;5719;42.714;23.732;2023-04-06T02:52:48;94021.78;;;0.10;100.00
11329;BME280;5719;42.714;23.732;2023-04-06T02:55:15;94018.81;;;0.20;100.00
11329;BME280;5719;42.714;23.732;2023-04-06T02:57:42;94013.63;;;0.02;100.00
11329;BME280;5719;42.714;23.732;2023-04-06T03:00:10;94019.72;;;-0.03;100.00
11329;BME280;5719;42.714;23.732;2023-04-06T03:02:37;94020.91;;;-0.11;100.00
11329;BME280;5719;42.714;23.732;2023-04-06T03:05:04;94024.78;;;-0.03;100.00
11329;BME280;5719;42.714;23.732;2023-04-06T03:07:33;94020.66;;;-0.05;100.00
11329;BME280;5719;42.714;23.732;2023-04-06T03:09:59;94026.50;;;-0.03;100.00
11329;BME280;5719;42.714;23.732;2023-04-06T03:12:26;94029.34;;;-0.11;100.00
11329;BME280;5719;42.714;23.732;2023-04-06T03:14:53;94012.81;;;-0.21;100.00
11329;BME280;5719;42.714;23.732;2023-04-06T03:17:20;94009.44;;;-0.21;100.00
11329;BME280;5719;42.714;23.732;2023-04-06T03:19:47;94007.50;;;-0.15;100.00
11329;BME280;5719;42.714;23.732;2023-04-06T03:22:14;94018.31;;;-0.10;100.00
11329;BME280;5719;42.714;23.732;2023-04-06T03:24:42;94015.91;;;-0.36;100.00
11329;BME280;5719;42.714;23.732;2023-04-06T03:27:09;94016.72;;;-0.34;100.00
11329;BME280;5719;42.714;23.732;2023-04-06T03:29:36;94017.59;;;-0.35;100.00
11329;BME280;5719;42.714;23.732;2023-04-06T03:32:03;94008.91;;;-0.29;100.00
11329;BME280;5719;42.714;23.732;2023-04-06T03:34:30;94002.66;;;-0.21;100.00
11329;BME280;5719;42.714;23.732;2023-04-06T03:36:57;94004.88;;;-0.35;100.00
11329;BME280;5719;42.714;23.732;2023-04-06T03:39:24;94007.13;;;-0.27;100.00
11329;BME280;5719;42.714;23.732;2023-04-06T03:41:52;94007.59;;;-0.39;100.00
11329;BME280;5719;42.714;23.732;2023-04-06T03:44:19;94004.53;;;-0.47;100.00
11329;BME280;5719;42.714;23.732;2023-04-06T03:46:46;94011.50;;;-0.31;100.00
11329;BME280;5719;42.714;23.732;2023-04-06T03:49:13;94010.91;;;-0.37;100.00
11329;BME280;5719;42.714;23.732;2023-04-06T03:51:40;94012.88;;;-0.44;100.00
11329;BME280;5719;42.714;23.732;2023-04-06T03:54:07;94012.75;;;-0.41;100.00
11329;BME280;5719;42.714;23.732;2023-04-06T03:56:34;93981.91;;;-0.54;100.00
11329;BME280;5719;42.714;23.732;2023-04-06T03:59:02;94012.91;;;-0.45;100.00
11329;BME280;5719;42.714;23.732;2023-04-06T04:01:29;94013.75;;;-0.45;100.00
11329;BME280;5719;42.714;23.732;2023-04-06T04:03:56;94010.97;;;-0.39;100.00
11329;BME280;5719;42.714;23.732;2023-04-06T04:06:23;94012.06;;;-0.46;100.00
11329;BME280;5719;42.714;23.732;2023-04-06T04:08:51;94018.69;;;-0.42;100.00
11329;BME280;5719;42.714;23.732;2023-04-06T04:11:17;94020.34;;;-0.41;100.00
11329;BME280;5719;42.714;23.732;2023-04-06T04:13:45;94022.06;;;-0.41;100.00
11329;BME280;5719;42.714;23.732;2023-04-06T04:16:14;94019.56;;;-0.43;100.00
11329;BME280;5719;42.714;23.732;2023-04-06T04:18:41;94020.00;;;-0.32;100.00
11329;BME280;5719;42.714;23.732;2023-04-06T04:21:09;94018.75;;;-0.43;100.00
11329;BME280;5719;42.714;23.732;2023-04-06T04:23:36;93962.44;;;-0.76;100.00
11329;BME280;5719;42.714;23.732;2023-04-06T04:26:03;94024.97;;;-0.29;100.00
11329;BME280;5719;42.714;23.732;2023-04-06T04:28:30;94027.19;;;-0.43;100.00
11329;BME280;5719;42.714;23.732;2023-04-06T04:30:57;94022.13;;;-0.43;100.00
11329;BME280;5719;42.714;23.732;2023-04-06T04:33:25;94023.78;;;-0.42;100.00
11329;BME280;5719;42.714;23.732;2023-04-06T04:35:52;94017.19;;;-0.24;100.00
11329;BME280;5719;42.714;23.732;2023-04-06T04:38:19;94029.41;;;-0.12;100.00
11329;BME280;5719;42.714;23.732;2023-04-06T04:40:46;94030.28;;;-0.13;100.00
11329;BME280;5719;42.714;23.732;2023-04-06T04:43:13;94018.53;;;-0.16;100.00
11329;BME280;5719;42.714;23.732;2023-04-06T04:45:40;94022.34;;;-0.04;100.00
11329;BME280;5719;42.714;23.732;2023-04-06T04:48:07;94015.13;;;-0.15;100.00
11329;BME280;5719;42.714;23.732;2023-04-06T04:50:36;94014.59;;;-0.01;100.00
11329;BME280;5719;42.714;23.732;2023-04-06T04:53:03;94007.84;;;-0.02;100.00
11329;BME280;5719;42.714;23.732;2023-04-06T04:55:31;94012.88;;;-0.01;100.00
11329;BME280;5719;42.714;23.732;2023-04-06T04:57:58;94011.66;;;0.08;100.00
11329;BME280;5719;42.714;23.732;2023-04-06T05:00:25;94015.56;;;0.17;100.00
11329;BME280;5719;42.714;23.732;2023-04-06T05:02:52;94017.94;;;0.21;100.00
11329;BME280;5719;42.714;23.732;2023-04-06T05:05:19;94011.88;;;0.04;100.00
11329;BME280;5719;42.714;23.732;2023-04-06T05:07:48;94004.56;;;-0.04;100.00
11329;BME280;5719;42.714;23.732;2023-04-06T05:10:15;93960.66;;;-0.29;100.00
11329;BME280;5719;42.714;23.732;2023-04-06T05:12:42;94018.38;;;0.11;100.00
11329;BME280;5719;42.714;23.732;2023-04-06T05:15:10;94021.66;;;0.13;100.00
11329;BME280;5719;42.714;23.732;2023-04-06T05:17:37;94017.06;;;0.00;100.00
11329;BME280;5719;42.714;23.732;2023-04-06T05:20:05;94005.47;;;-0.07;100.00
11329;BME280;5719;42.714;23.732;2023-04-06T05:22:32;94008.09;;;-0.08;100.00
11329;BME280;5719;42.714;23.732;2023-04-06T05:25:01;94009.34;;;0.04;100.00
11329;BME280;5719;42.714;23.732;2023-04-06T05:27:28;94022.66;;;0.09;100.00
11329;BME280;5719;42.714;23.732;2023-04-06T05:29:55;94015.88;;;0.09;100.00
11329;BME280;5719;42.714;23.732;2023-04-06T05:32:22;94014.59;;;-0.01;100.00
11329;BME280;5719;42.714;23.732;2023-04-06T05:34:50;94014.22;;;0.08;100.00
11329;BME280;5719;42.714;23.732;2023-04-06T05:37:17;94015.03;;;0.09;100.00
11329;BME280;5719;42.714;23.732;2023-04-06T05:39:44;94014.56;;;0.21;100.00
11329;BME280;5719;42.714;23.732;2023-04-06T05:42:12;94015.44;;;0.20;100.00
11329;BME280;5719;42.714;23.732;2023-04-06T05:44:40;94015.97;;;0.28;100.00
11329;BME280;5719;42.714;23.732;2023-04-06T05:47:07;94006.97;;;0.41;100.00
11329;BME280;5719;42.714;23.732;2023-04-06T05:49:35;94002.34;;;0.51;100.00
11329;BME280;5719;42.714;23.732;2023-04-06T05:52:02;94008.09;;;0.34;100.00
11329;BME280;5719;42.714;23.732;2023-04-06T05:54:29;93999.06;;;0.27;100.00
11329;BME280;5719;42.714;23.732;2023-04-06T05:56:56;94014.31;;;0.27;100.00
11329;BME280;5719;42.714;23.732;2023-04-06T05:59:25;94010.50;;;0.37;100.00
11329;BME280;5719;42.714;23.732;2023-04-06T06:01:52;93996.34;;;0.31;100.00
11329;BME280;5719;42.714;23.732;2023-04-06T06:04:19;93991.44;;;0.27;100.00
11329;BME280;5719;42.714;23.732;2023-04-06T06:06:46;94000.72;;;0.48;100.00
11329;BME280;5719;42.714;23.732;2023-04-06T06:09:13;94000.47;;;0.34;100.00
11329;BME280;5719;42.714;23.732;2023-04-06T06:11:40;93985.84;;;0.19;100.00
11329;BME280;5719;42.714;23.732;2023-04-06T06:14:07;93996.91;;;0.38;100.00
11329;BME280;5719;42.714;23.732;2023-04-06T06:16:36;93995.59;;;0.49;100.00
11329;BME280;5719;42.714;23.732;2023-04-06T06:19:03;93999.84;;;0.49;100.00
11329;BME280;5719;42.714;23.732;2023-04-06T06:21:30;93992.09;;;0.32;100.00
11329;BME280;5719;42.714;23.732;2023-04-06T06:23:57;93998.56;;;0.39;100.00
11329;BME280;5719;42.714;23.732;2023-04-06T06:26:25;93994.19;;;0.42;100.00
11329;BME280;5719;42.714;23.732;2023-04-06T06:28:52;93990.44;;;0.51;100.00
11329;BME280;5719;42.714;23.732;2023-04-06T06:31:19;93995.78;;;0.65;100.00
11329;BME280;5719;42.714;23.732;2023-04-06T06:33:49;94005.00;;;0.68;100.00
11329;BME280;5719;42.714;23.732;2023-04-06T06:36:17;93997.75;;;0.79;100.00
11329;BME280;5719;42.714;23.732;2023-04-06T06:38:44;94004.53;;;0.98;100.00
11329;BME280;5719;42.714;23.732;2023-04-06T06:41:11;94006.34;;;1.15;100.00
11329;BME280;5719;42.714;23.732;2023-04-06T06:43:38;94003.72;;;1.17;100.00
11329;BME280;5719;42.714;23.732;2023-04-06T06:46:05;94003.19;;;1.10;100.00
11329;BME280;5719;42.714;23.732;2023-04-06T06:48:32;94008.88;;;0.96;100.00
11329;BME280;5719;42.714;23.732;2023-04-06T06:51:01;94009.78;;;0.75;100.00
11329;BME280;5719;42.714;23.732;2023-04-06T06:53:28;94008.50;;;1.06;100.00
11329;BME280;5719;42.714;23.732;2023-04-06T06:55:55;93983.41;;;0.96;100.00
11329;BME280;5719;42.714;23.732;2023-04-06T06:58:22;94004.53;;;0.98;100.00
11329;BME280;5719;42.714;23.732;2023-04-06T07:00:49;94004.78;;;0.92;100.00
11329;BME280;5719;42.714;23.732;2023-04-06T07:03:16;93996.19;;;0.95;100.00
11329;BME280;5719;42.714;23.732;2023-04-06T07:05:45;94003.03;;;0.94;100.00
11329;BME280;5719;42.714;23.732;2023-04-06T07:08:19;94005.63;;;0.93;100.00
11329;BME280;5719;42.714;23.732;2023-04-06T07:10:46;93998.91;;;1.11;100.00
11329;BME280;5719;42.714;23.732;2023-04-06T07:13:14;94010.69;;;1.32;99.47
11329;BME280;5719;42.714;23.732;2023-04-06T07:15:44;94004.31;;;1.23;100.00
11329;BME280;5719;42.714;23.732;2023-04-06T07:18:11;93991.09;;;1.34;98.88
11329;BME280;5719;42.714;23.732;2023-04-06T07:20:38;93996.63;;;1.62;99.80
11329;BME280;5719;42.714;23.732;2023-04-06T07:23:06;93999.34;;;1.76;98.68
11329;BME280;5719;42.714;23.732;2023-04-06T07:25:34;93999.78;;;1.67;96.85
11329;BME280;5719;42.714;23.732;2023-04-06T07:28:01;93997.50;;;1.80;98.55
11329;BME280;5719;42.714;23.732;2023-04-06T07:30:29;93995.88;;;2.15;97.50
11329;BME280;5719;42.714;23.732;2023-04-06T07:32:56;94003.53;;;2.32;95.92
11329;BME280;5719;42.714;23.732;2023-04-06T07:35:25;93993.41;;;2.47;93.09
11329;BME280;5719;42.714;23.732;2023-04-06T07:37:53;94000.16;;;2.31;92.63
11329;BME280;5719;42.714;23.732;2023-04-06T07:40:20;93992.72;;;2.27;93.94
11329;BME280;5719;42.714;23.732;2023-04-06T07:42:49;93998.88;;;2.57;94.93
11329;BME280;5719;42.714;23.732;2023-04-06T07:45:16;93995.44;;;2.58;92.27
11329;BME280;5719;42.714;23.732;2023-04-06T07:47:45;93996.34;;;2.40;93.47
11329;BME280;5719;42.714;23.732;2023-04-06T07:50:13;93995.78;;;2.16;95.57
11329;BME280;5719;42.714;23.732;2023-04-06T07:52:40;93998.16;;;2.19;93.17
11329;BME280;5719;42.714;23.732;2023-04-06T07:55:07;93990.28;;;2.07;91.12
11329;BME280;5719;42.714;23.732;2023-04-06T07:57:34;93994.34;;;2.11;93.77
11329;BME280;5719;42.714;23.732;2023-04-06T08:00:04;94001.22;;;2.09;94.92
11329;BME280;5719;42.714;23.732;2023-04-06T08:02:31;94004.28;;;1.98;94.24
11329;BME280;5719;42.714;23.732;2023-04-06T08:04:58;94002.16;;;2.08;93.84
11329;BME280;5719;42.714;23.732;2023-04-06T08:07:25;93997.13;;;2.23;94.81
11329;BME280;5719;42.714;23.732;2023-04-06T08:09:52;93992.88;;;2.41;92.13
11329;BME280;5719;42.714;23.732;2023-04-06T08:12:19;93998.78;;;2.07;92.96
11329;BME280;5719;42.714;23.732;2023-04-06T08:14:47;93995.59;;;2.02;93.59
11329;BME280;5719;42.714;23.732;2023-04-06T08:17:16;93995.09;;;2.13;93.69
11329;BME280;5719;42.714;23.732;2023-04-06T08:19:43;93983.78;;;2.18;93.87
11329;BME280;5719;42.714;23.732;2023-04-06T08:22:10;94008.56;;;2.68;92.62
11329;BME280;5719;42.714;23.732;2023-04-06T08:24:37;94008.50;;;2.86;90.11
11329;BME280;5719;42.714;23.732;2023-04-06T08:27:04;94001.84;;;3.17;87.83
11329;BME280;5719;42.714;23.732;2023-04-06T08:29:31;93981.81;;;3.09;85.90
11329;BME280;5719;42.714;23.732;2023-04-06T08:31:58;93997.88;;;3.11;85.32
11329;BME280;5719;42.714;23.732;2023-04-06T08:34:27;94000.50;;;2.92;87.01
11329;BME280;5719;42.714;23.732;2023-04-06T08:36:54;94001.41;;;3.09;85.73
11329;BME280;5719;42.714;23.732;2023-04-06T08:39:21;93996.91;;;2.96;85.59
11329;BME280;5719;42.714;23.732;2023-04-06T08:41:53;94002.91;;;3.13;84.79
11329;BME280;5719;42.714;23.732;2023-04-06T08:44:22;93996.28;;;3.09;84.97
11329;BME280;5719;42.714;23.732;2023-04-06T08:46:49;94005.63;;;3.25;83.32
11329;BME280;5719;42.714;23.732;2023-04-06T08:49:18;94004.69;;;3.11;84.02
11329;BME280;5719;42.714;23.732;2023-04-06T08:51:47;93992.53;;;3.16;82.69
11329;BME280;5719;42.714;23.732;2023-04-06T08:54:14;94002.63;;;3.34;83.25
11329;BME280;5719;42.714;23.732;2023-04-06T08:56:42;94004.75;;;3.75;84.06
11329;BME280;5719;42.714;23.732;2023-04-06T08:59:10;93988.00;;;3.85;81.60
11329;BME280;5719;42.714;23.732;2023-04-06T09:01:39;93983.28;;;3.62;80.88
11329;BME280;5719;42.714;23.732;2023-04-06T09:04:08;93986.91;;;3.42;81.87
11329;BME280;5719;42.714;23.732;2023-04-06T09:06:36;93978.03;;;3.32;81.91
11329;BME280;5719;42.714;23.732;2023-04-06T09:09:05;93983.69;;;3.38;82.04
11329;BME280;5719;42.714;23.732;2023-04-06T09:11:45;93977.44;;;3.75;78.77
11329;BME280;5719;42.714;23.732;2023-04-06T09:14:12;93996.06;;;4.09;78.67
11329;BME280;5719;42.714;23.732;2023-04-06T09:16:40;93993.69;;;4.51;79.33
11329;BME280;5719;42.714;23.732;2023-04-06T09:19:07;93979.44;;;4.31;77.44
11329;BME280;5719;42.714;23.732;2023-04-06T09:21:34;93982.81;;;4.48;74.95
11329;BME280;5719;42.714;23.732;2023-04-06T09:24:03;93994.47;;;4.67;72.35
11329;BME280;5719;42.714;23.732;2023-04-06T09:26:31;93976.63;;;4.36;75.37
11329;BME280;5719;42.714;23.732;2023-04-06T09:28:59;93979.09;;;4.08;75.88
11329;BME280;5719;42.714;23.732;2023-04-06T09:31:28;93984.22;;;4.37;75.11
11329;BME280;5719;42.714;23.732;2023-04-06T09:33:56;93983.56;;;4.93;74.39
11329;BME280;5719;42.714;23.732;2023-04-06T09:36:35;93988.00;;;5.34;73.86
11329;BME280;5719;42.714;23.732;2023-04-06T09:39:04;93981.09;;;5.77;71.45
11329;BME280;5719;42.714;23.732;2023-04-06T09:41:34;93973.06;;;5.26;70.34
11329;BME280;5719;42.714;23.732;2023-04-06T09:44:02;93981.09;;;5.91;68.80
11329;BME280;5719;42.714;23.732;2023-04-06T09:46:31;93980.59;;;6.39;67.44
11329;BME280;5719;42.714;23.732;2023-04-06T09:49:00;93979.94;;;6.63;64.34
11329;BME280;5719;42.714;23.732;2023-04-06T09:51:31;93969.75;;;6.61;65.73
11329;BME280;5719;42.714;23.732;2023-04-06T09:53:59;93960.56;;;7.22;64.28
11329;BME280;5719;42.714;23.732;2023-04-06T09:56:37;93961.59;;;6.42;64.38
11329;BME280;5719;42.714;23.732;2023-04-06T09:59:08;93969.22;;;6.56;67.80
11329;BME280;5719;42.714;23.732;2023-04-06T10:01:37;93972.91;;;7.42;63.68
11329;BME280;5719;42.714;23.732;2023-04-06T10:04:13;93967.06;;;7.27;61.27
11329;BME280;5719;42.714;23.732;2023-04-06T10:06:46;93960.31;;;6.74;61.55
11329;BME280;5719;42.714;23.732;2023-04-06T10:09:18;93966.22;;;7.52;62.13
11329;BME280;5719;42.714;23.732;2023-04-06T10:11:50;93946.34;;;7.54;60.28
11329;BME280;5719;42.714;23.732;2023-04-06T10:14:17;93951.84;;;7.24;61.66
11329;BME280;5719;42.714;23.732;2023-04-06T10:16:46;93947.41;;;7.88;59.52
11329;BME280;5719;42.714;23.732;2023-04-06T10:19:18;93927.63;;;8.01;59.22
11329;BME280;5719;42.714;23.732;2023-04-06T10:21:51;93935.44;;;8.00;58.09
11329;BME280;5719;42.714;23.732;2023-04-06T10:24:20;93940.97;;;8.06;57.99
11329;BME280;5719;42.714;23.732;2023-04-06T10:26:58;93935.56;;;8.69;59.15
11329;BME280;5719;42.714;23.732;2023-04-06T10:29:25;93921.47;;;7.91;56.96
11329;BME280;5719;42.714;23.732;2023-04-06T10:31:52;93941.84;;;8.54;59.18
11329;BME280;5719;42.714;23.732;2023-04-06T10:34:21;93930.09;;;8.50;56.06
11329;BME280;5719;42.714;23.732;2023-04-06T10:36:48;93936.81;;;7.93;58.75
11329;BME280;5719;42.714;23.732;2023-04-06T10:39:24;93929.78;;;8.31;56.41
11329;BME280;5719;42.714;23.732;2023-04-06T10:41:53;93939.94;;;8.09;57.03
11329;BME280;5719;42.714;23.732;2023-04-06T10:44:22;93936.72;;;8.30;58.01
11329;BME280;5719;42.714;23.732;2023-04-06T10:46:53;93939.47;;;8.51;53.93
11329;BME280;5719;42.714;23.732;2023-04-06T10:49:20;93923.19;;;7.54;61.90
11329;BME280;5719;42.714;23.732;2023-04-06T10:51:51;93933.91;;;7.61;59.50
11329;BME280;5719;42.714;23.732;2023-04-06T10:54:21;93935.75;;;7.95;60.76
11329;BME280;5719;42.714;23.732;2023-04-06T10:56:48;93929.63;;;8.45;57.14
11329;BME280;5719;42.714;23.732;2023-04-06T10:59:18;93917.66;;;7.60;58.83
11329;BME280;5719;42.714;23.732;2023-04-06T11:01:47;93923.16;;;8.16;56.74
11329;BME280;5719;42.714;23.732;2023-04-06T11:04:16;93937.56;;;7.82;58.89
11329;BME280;5719;42.714;23.732;2023-04-06T11:06:46;93932.34;;;8.55;55.14
11329;BME280;5719;42.714;23.732;2023-04-06T11:09:23;93913.34;;;8.91;53.89
11329;BME280;5719;42.714;23.732;2023-04-06T11:11:51;93913.19;;;9.27;52.71
11329;BME280;5719;42.714;23.732;2023-04-06T11:14:19;93911.66;;;9.24;53.61
11329;BME280;5719;42.714;23.732;2023-04-06T11:16:48;93916.22;;;8.64;53.59
11329;BME280;5719;42.714;23.732;2023-04-06T11:19:16;93913.25;;;8.57;54.63
11329;BME280;5719;42.714;23.732;2023-04-06T11:21:46;93917.63;;;9.58;54.92
11329;BME280;5719;42.714;23.732;2023-04-06T11:24:15;93913.84;;;9.84;51.59
11329;BME280;5719;42.714;23.732;2023-04-06T11:26:43;93903.66;;;9.83;51.36
11329;BME280;5719;42.714;23.732;2023-04-06T11:29:12;93909.38;;;10.20;50.34
11329;BME280;5719;42.714;23.732;2023-04-06T11:31:40;93915.41;;;9.20;51.75
11329;BME280;5719;42.714;23.732;2023-04-06T11:34:13;93917.06;;;8.75;53.89
11329;BME280;5719;42.714;23.732;2023-04-06T11:36:43;93907.44;;;9.23;52.68
11329;BME280;5719;42.714;23.732;2023-04-06T11:39:11;93899.00;;;9.10;53.21
11329;BME280;5719;42.714;23.732;2023-04-06T11:41:39;93900.00;;;9.85;51.97
11329;BME280;5719;42.714;23.732;2023-04-06T11:44:06;93888.13;;;10.90;48.45
11329;BME280;5719;42.714;23.732;2023-04-06T11:46:33;93875.16;;;11.61;48.41
11329;BME280;5719;42.714;23.732;2023-04-06T11:49:01;93881.50;;;12.27;46.45
11329;BME280;5719;42.714;23.732;2023-04-06T11:51:30;93890.25;;;11.26;46.63
11329;BME280;5719;42.714;23.732;2023-04-06T11:53:57;93893.44;;;11.09;46.54
11329;BME280;5719;42.714;23.732;2023-04-06T11:56:25;93886.47;;;11.30;46.92
11329;BME280;5719;42.714;23.732;2023-04-06T11:58:52;93879.63;;;11.59;46.62
11329;BME280;5719;42.714;23.732;2023-04-06T12:01:20;93883.22;;;11.68;45.71
11329;BME280;5719;42.714;23.732;2023-04-06T12:03:47;93874.06;;;11.64;45.01
11329;BME280;5719;42.714;23.732;2023-04-06T12:06:15;93888.06;;;11.52;46.24
11329;BME280;5719;42.714;23.732;2023-04-06T12:08:43;93876.56;;;12.53;44.11
11329;BME280;5719;42.714;23.732;2023-04-06T12:11:10;93875.94;;;13.36;45.26
11329;BME280;5719;42.714;23.732;2023-04-06T12:13:37;93852.78;;;12.96;41.83
11329;BME280;5719;42.714;23.732;2023-04-06T12:16:05;93859.91;;;12.46;43.45
11329;BME280;5719;42.714;23.732;2023-04-06T12:18:32;93872.00;;;13.22;42.07
11329;BME280;5719;42.714;23.732;2023-04-06T12:20:58;93864.38;;;11.87;43.82
11329;BME280;5719;42.714;23.732;2023-04-06T12:23:26;93870.94;;;11.70;44.10
11329;BME280;5719;42.714;23.732;2023-04-06T12:25:54;93864.84;;;12.30;43.21
11329;BME280;5719;42.714;23.732;2023-04-06T12:28:21;93874.00;;;12.34;42.31
11329;BME280;5719;42.714;23.732;2023-04-06T12:30:52;93871.47;;;12.04;43.98
11329;BME280;5719;42.714;23.732;2023-04-06T12:33:19;93872.84;;;12.08;43.16
11329;BME280;5719;42.714;23.732;2023-04-06T12:35:46;93853.38;;;12.61;41.86
11329;BME280;5719;42.714;23.732;2023-04-06T12:38:13;93870.25;;;12.08;42.55
11329;BME280;5719;42.714;23.732;2023-04-06T12:40:40;93863.31;;;12.18;42.87
11329;BME280;5719;42.714;23.732;2023-04-06T12:43:08;93853.94;;;11.07;43.77
11329;BME280;5719;42.714;23.732;2023-04-06T12:45:36;93846.63;;;11.52;43.42
11329;BME280;5719;42.714;23.732;2023-04-06T12:48:03;93870.09;;;11.90;42.95
11329;BME280;5719;42.714;23.732;2023-04-06T12:50:30;93874.19;;;11.62;43.30
11329;BME280;5719;42.714;23.732;2023-04-06T12:52:57;93882.34;;;10.76;43.95
11329;BME280;5719;42.714;23.732;2023-04-06T12:55:24;93874.81;;;10.21;46.01
11329;BME280;5719;42.714;23.732;2023-04-06T12:57:52;93873.56;;;10.47;45.39
11329;BME280;5719;42.714;23.732;2023-04-06T13:00:21;93867.72;;;10.66;42.95
11329;BME280;5719;42.714;23.732;2023-04-06T13:02:48;93849.72;;;10.64;43.97